sensor_id;sensor_type;location;lat;lon;timestamp;P1;durP1;ratioP1;P2;durP2;ratioP2
64469;SDS011;50854;48.538;14.352;2023-04-24T00:00:08;5.33;;;4.07;;
64469;SDS011;50854;48.538;14.352;2023-04-24T00:01:12;4.93;;;3.78;;
64469;SDS011;50854;48.538;14.352;2023-04-24T00:02:13;8.37;;;3.77;;
64469;SDS011;50854;48.538;14.352;2023-04-24T00:03:13;6.20;;;3.97;;
64469;SDS011;50854;48.538;14.352;2023-04-24T00:04:14;6.03;;;4.33;;
64469;SDS011;50854;48.538;14.352;2023-04-24T00:05:16;5.43;;;3.67;;
64469;SDS011;50854;48.538;14.352;2023-04-24T00:06:17;7.78;;;3.90;;
64469;SDS011;50854;48.538;14.352;2023-04-24T00:07:17;5.03;;;3.77;;
64469;SDS011;50854;48.538;14.352;2023-04-24T00:08:17;4.97;;;3.93;;
64469;SDS011;50854;48.538;14.352;2023-04-24T00:09:18;7.63;;;3.77;;
64469;SDS011;50854;48.538;14.352;2023-04-24T00:10:18;9.17;;;3.67;;
64469;SDS011;50854;48.538;14.352;2023-04-24T00:11:18;6.38;;;3.60;;
64469;SDS011;50854;48.538;14.352;2023-04-24T00:12:19;5.00;;;3.72;;
64469;SDS011;50854;48.538;14.352;2023-04-24T00:13:20;7.33;;;3.90;;
64469;SDS011;50854;48.538;14.352;2023-04-24T00:14:20;6.60;;;3.80;;
64469;SDS011;50854;48.538;14.352;2023-04-24T00:15:20;6.47;;;3.90;;
64469;SDS011;50854;48.538;14.352;2023-04-24T00:16:21;6.30;;;3.83;;
64469;SDS011;50854;48.538;14.352;2023-04-24T00:17:21;4.82;;;4.18;;
64469;SDS011;50854;48.538;14.352;2023-04-24T00:18:22;5.03;;;4.10;;
64469;SDS011;50854;48.538;14.352;2023-04-24T00:19:22;6.53;;;3.90;;
64469;SDS011;50854;48.538;14.352;2023-04-24T00:20:22;5.23;;;3.90;;
64469;SDS011;50854;48.538;14.352;2023-04-24T00:21:23;9.43;;;4.03;;
64469;SDS011;50854;48.538;14.352;2023-04-24T00:22:25;5.78;;;3.92;;
64469;SDS011;50854;48.538;14.352;2023-04-24T00:23:26;5.10;;;4.13;;
64469;SDS011;50854;48.538;14.352;2023-04-24T00:24:26;5.50;;;3.77;;
64469;SDS011;50854;48.538;14.352;2023-04-24T00:25:26;7.73;;;3.93;;
64469;SDS011;50854;48.538;14.352;2023-04-24T00:26:27;6.60;;;3.80;;
64469;SDS011;50854;48.538;14.352;2023-04-24T00:27:27;8.43;;;4.30;;
64469;SDS011;50854;48.538;14.352;2023-04-24T00:28:27;7.13;;;4.13;;
64469;SDS011;50854;48.538;14.352;2023-04-24T00:29:27;5.30;;;4.23;;
64469;SDS011;50854;48.538;14.352;2023-04-24T00:30:28;6.05;;;3.85;;
64469;SDS011;50854;48.538;14.352;2023-04-24T00:31:28;6.30;;;3.87;;
64469;SDS011;50854;48.538;14.352;2023-04-24T00:32:29;4.90;;;4.00;;
64469;SDS011;50854;48.538;14.352;2023-04-24T00:33:29;4.35;;;3.65;;
64469;SDS011;50854;48.538;14.352;2023-04-24T00:34:30;5.43;;;4.43;;
64469;SDS011;50854;48.538;14.352;2023-04-24T00:35:32;4.93;;;3.88;;
64469;SDS011;50854;48.538;14.352;2023-04-24T00:36:32;5.00;;;3.80;;
64469;SDS011;50854;48.538;14.352;2023-04-24T00:37:32;4.10;;;3.20;;
64469;SDS011;50854;48.538;14.352;2023-04-24T00:38:33;4.90;;;3.70;;
64469;SDS011;50854;48.538;14.352;2023-04-24T00:39:33;7.10;;;3.67;;
64469;SDS011;50854;48.538;14.352;2023-04-24T00:40:33;5.43;;;3.53;;
64469;SDS011;50854;48.538;14.352;2023-04-24T00:41:33;7.53;;;3.63;;
64469;SDS011;50854;48.538;14.352;2023-04-24T00:42:34;5.28;;;3.72;;
64469;SDS011;50854;48.538;14.352;2023-04-24T00:43:34;5.95;;;3.60;;
64469;SDS011;50854;48.538;14.352;2023-04-24T00:44:34;5.60;;;3.53;;
64469;SDS011;50854;48.538;14.352;2023-04-24T00:45:35;4.47;;;3.27;;
64469;SDS011;50854;48.538;14.352;2023-04-24T00:46:36;5.15;;;3.40;;
64469;SDS011;50854;48.538;14.352;2023-04-24T00:47:36;3.97;;;3.23;;
64469;SDS011;50854;48.538;14.352;2023-04-24T00:48:37;5.23;;;2.93;;
64469;SDS011;50854;48.538;14.352;2023-04-24T00:49:37;4.65;;;3.47;;
64469;SDS011;50854;48.538;14.352;2023-04-24T00:50:37;5.20;;;3.63;;
64469;SDS011;50854;48.538;14.352;2023-04-24T00:51:38;5.37;;;3.07;;
64469;SDS011;50854;48.538;14.352;2023-04-24T00:52:38;4.60;;;3.47;;
64469;SDS011;50854;48.538;14.352;2023-04-24T00:53:40;4.35;;;3.05;;
64469;SDS011;50854;48.538;14.352;2023-04-24T00:54:40;4.87;;;2.60;;
64469;SDS011;50854;48.538;14.352;2023-04-24T00:55:41;5.23;;;3.10;;
64469;SDS011;50854;48.538;14.352;2023-04-24T00:56:41;6.27;;;3.60;;
64469;SDS011;50854;48.538;14.352;2023-04-24T00:57:42;5.75;;;2.90;;
64469;SDS011;50854;48.538;14.352;2023-04-24T00:58:42;4.57;;;2.90;;
64469;SDS011;50854;48.538;14.352;2023-04-24T00:59:43;5.00;;;2.70;;
64469;SDS011;50854;48.538;14.352;2023-04-24T01:00:44;3.65;;;2.70;;
64469;SDS011;50854;48.538;14.352;2023-04-24T01:01:45;4.72;;;3.00;;
64469;SDS011;50854;48.538;14.352;2023-04-24T01:02:45;4.45;;;3.03;;
64469;SDS011;50854;48.538;14.352;2023-04-24T01:03:46;5.20;;;2.75;;
64469;SDS011;50854;48.538;14.352;2023-04-24T01:04:46;5.75;;;2.70;;
64469;SDS011;50854;48.538;14.352;2023-04-24T01:05:47;6.17;;;2.90;;
64469;SDS011;50854;48.538;14.352;2023-04-24T01:06:48;5.68;;;2.67;;
64469;SDS011;50854;48.538;14.352;2023-04-24T01:07:48;4.45;;;2.85;;
64469;SDS011;50854;48.538;14.352;2023-04-24T01:08:49;3.93;;;2.93;;
64469;SDS011;50854;48.538;14.352;2023-04-24T01:09:49;3.60;;;2.93;;
64469;SDS011;50854;48.538;14.352;2023-04-24T01:10:51;3.10;;;2.38;;
64469;SDS011;50854;48.538;14.352;2023-04-24T01:11:51;2.65;;;2.33;;
64469;SDS011;50854;48.538;14.352;2023-04-24T01:12:52;3.47;;;1.67;;
64469;SDS011;50854;48.538;14.352;2023-04-24T01:13:52;1.85;;;1.38;;
64469;SDS011;50854;48.538;14.352;2023-04-24T01:14:53;1.67;;;1.33;;
64469;SDS011;50854;48.538;14.352;2023-04-24T01:15:53;1.83;;;1.13;;
64469;SDS011;50854;48.538;14.352;2023-04-24T01:16:54;2.43;;;1.50;;
64469;SDS011;50854;48.538;14.352;2023-04-24T01:17:54;1.83;;;1.05;;
64469;SDS011;50854;48.538;14.352;2023-04-24T01:18:56;1.40;;;1.30;;
64469;SDS011;50854;48.538;14.352;2023-04-24T01:19:56;2.13;;;1.30;;
64469;SDS011;50854;48.538;14.352;2023-04-24T01:20:57;1.70;;;1.33;;
64469;SDS011;50854;48.538;14.352;2023-04-24T01:21:58;1.95;;;1.10;;
64469;SDS011;50854;48.538;14.352;2023-04-24T01:22:59;1.40;;;1.08;;
64469;SDS011;50854;48.538;14.352;2023-04-24T01:24:00;1.30;;;1.10;;
64469;SDS011;50854;48.538;14.352;2023-04-24T01:25:00;1.30;;;1.20;;
64469;SDS011;50854;48.538;14.352;2023-04-24T01:26:01;1.90;;;1.43;;
64469;SDS011;50854;48.538;14.352;2023-04-24T01:27:01;1.17;;;0.93;;
64469;SDS011;50854;48.538;14.352;2023-04-24T01:28:01;1.50;;;1.17;;
64469;SDS011;50854;48.538;14.352;2023-04-24T01:29:01;2.47;;;1.13;;
64469;SDS011;50854;48.538;14.352;2023-04-24T01:30:02;1.27;;;1.00;;
64469;SDS011;50854;48.538;14.352;2023-04-24T01:31:03;1.33;;;1.02;;
64469;SDS011;50854;48.538;14.352;2023-04-24T01:32:04;1.10;;;1.00;;
64469;SDS011;50854;48.538;14.352;2023-04-24T01:33:04;4.03;;;1.10;;
64469;SDS011;50854;48.538;14.352;2023-04-24T01:34:05;0.80;;;0.80;;
64469;SDS011;50854;48.538;14.352;2023-04-24T01:35:06;1.20;;;1.10;;
64469;SDS011;50854;48.538;14.352;2023-04-24T01:36:06;1.48;;;1.10;;
64469;SDS011;50854;48.538;14.352;2023-04-24T01:37:07;1.05;;;0.90;;
64469;SDS011;50854;48.538;14.352;2023-04-24T01:38:07;0.97;;;0.80;;
64469;SDS011;50854;48.538;14.352;2023-04-24T01:39:08;1.67;;;0.87;;
64469;SDS011;50854;48.538;14.352;2023-04-24T01:40:09;3.85;;;0.98;;
64469;SDS011;50854;48.538;14.352;2023-04-24T01:41:09;2.23;;;1.00;;
64469;SDS011;50854;48.538;14.352;2023-04-24T01:42:09;1.00;;;0.90;;
64469;SDS011;50854;48.538;14.352;2023-04-24T01:43:10;1.47;;;1.00;;
64469;SDS011;50854;48.538;14.352;2023-04-24T01:51:00;2.47;;;1.53;;
64469;SDS011;50854;48.538;14.352;2023-04-24T01:54:32;1.58;;;1.08;;
64469;SDS011;50854;48.538;14.352;2023-04-24T01:55:33;1.10;;;0.90;;
64469;SDS011;50854;48.538;14.352;2023-04-24T01:56:33;1.60;;;1.00;;
64469;SDS011;50854;48.538;14.352;2023-04-24T01:57:35;0.98;;;0.88;;
64469;SDS011;50854;48.538;14.352;2023-04-24T01:58:36;1.13;;;0.80;;
64469;SDS011;50854;48.538;14.352;2023-04-24T01:59:36;0.87;;;0.77;;
64469;SDS011;50854;48.538;14.352;2023-04-24T02:00:36;0.90;;;0.90;;
64469;SDS011;50854;48.538;14.352;2023-04-24T02:01:37;1.20;;;0.80;;
64469;SDS011;50854;48.538;14.352;2023-04-24T02:02:38;1.55;;;0.80;;
64469;SDS011;50854;48.538;14.352;2023-04-24T02:03:39;1.10;;;0.93;;
64469;SDS011;50854;48.538;14.352;2023-04-24T02:04:39;2.03;;;1.00;;
64469;SDS011;50854;48.538;14.352;2023-04-24T02:05:40;0.93;;;0.80;;
64469;SDS011;50854;48.538;14.352;2023-04-24T02:06:40;1.17;;;0.70;;
64469;SDS011;50854;48.538;14.352;2023-04-24T02:07:40;1.33;;;0.87;;
64469;SDS011;50854;48.538;14.352;2023-04-24T02:08:41;1.00;;;0.90;;
64469;SDS011;50854;48.538;14.352;2023-04-24T02:09:41;2.40;;;1.10;;
64469;SDS011;50854;48.538;14.352;2023-04-24T02:10:41;1.60;;;0.90;;
64469;SDS011;50854;48.538;14.352;2023-04-24T02:11:41;1.90;;;1.37;;
64469;SDS011;50854;48.538;14.352;2023-04-24T02:12:41;1.43;;;1.10;;
64469;SDS011;50854;48.538;14.352;2023-04-24T02:13:42;1.13;;;0.97;;
64469;SDS011;50854;48.538;14.352;2023-04-24T02:14:42;1.13;;;0.90;;
64469;SDS011;50854;48.538;14.352;2023-04-24T02:15:42;1.77;;;1.03;;
64469;SDS011;50854;48.538;14.352;2023-04-24T02:16:43;1.33;;;1.07;;
64469;SDS011;50854;48.538;14.352;2023-04-24T02:17:43;1.65;;;1.10;;
64469;SDS011;50854;48.538;14.352;2023-04-24T02:18:44;1.07;;;0.93;;
64469;SDS011;50854;48.538;14.352;2023-04-24T02:19:44;2.20;;;1.10;;
64469;SDS011;50854;48.538;14.352;2023-04-24T02:20:45;2.10;;;1.20;;
64469;SDS011;50854;48.538;14.352;2023-04-24T02:21:45;1.20;;;1.02;;
64469;SDS011;50854;48.538;14.352;2023-04-24T02:22:45;1.07;;;0.97;;
64469;SDS011;50854;48.538;14.352;2023-04-24T02:23:45;1.63;;;1.20;;
64469;SDS011;50854;48.538;14.352;2023-04-24T02:24:46;2.20;;;1.00;;
64469;SDS011;50854;48.538;14.352;2023-04-24T02:25:46;4.27;;;1.20;;
64469;SDS011;50854;48.538;14.352;2023-04-24T02:26:47;2.38;;;1.20;;
64469;SDS011;50854;48.538;14.352;2023-04-24T02:27:47;4.13;;;2.23;;
64469;SDS011;50854;48.538;14.352;2023-04-24T02:28:47;1.67;;;1.23;;
64469;SDS011;50854;48.538;14.352;2023-04-24T02:29:47;1.87;;;1.20;;
64469;SDS011;50854;48.538;14.352;2023-04-24T02:30:47;1.23;;;0.87;;
64469;SDS011;50854;48.538;14.352;2023-04-24T02:31:48;3.83;;;1.00;;
64469;SDS011;50854;48.538;14.352;2023-04-24T02:32:48;30.67;;;13.90;;
64469;SDS011;50854;48.538;14.352;2023-04-24T02:33:49;14.00;;;6.57;;
64469;SDS011;50854;48.538;14.352;2023-04-24T02:34:49;6.97;;;3.20;;
64469;SDS011;50854;48.538;14.352;2023-04-24T02:35:49;4.90;;;3.10;;
64469;SDS011;50854;48.538;14.352;2023-04-24T02:36:50;5.00;;;3.07;;
64469;SDS011;50854;48.538;14.352;2023-04-24T02:37:50;4.07;;;2.80;;
64469;SDS011;50854;48.538;14.352;2023-04-24T02:38:50;6.60;;;5.30;;
64469;SDS011;50854;48.538;14.352;2023-04-24T02:39:50;4.00;;;2.10;;
64469;SDS011;50854;48.538;14.352;2023-04-24T02:40:51;4.23;;;3.53;;
64469;SDS011;50854;48.538;14.352;2023-04-24T02:41:51;2.37;;;1.80;;
64469;SDS011;50854;48.538;14.352;2023-04-24T02:42:51;2.50;;;1.40;;
64469;SDS011;50854;48.538;14.352;2023-04-24T02:43:51;1.50;;;1.00;;
64469;SDS011;50854;48.538;14.352;2023-04-24T02:44:51;1.33;;;1.23;;
64469;SDS011;50854;48.538;14.352;2023-04-24T02:45:52;2.90;;;1.40;;
64469;SDS011;50854;48.538;14.352;2023-04-24T02:46:52;1.83;;;1.10;;
64469;SDS011;50854;48.538;14.352;2023-04-24T02:47:52;2.03;;;1.30;;
64469;SDS011;50854;48.538;14.352;2023-04-24T02:48:52;1.70;;;1.10;;
64469;SDS011;50854;48.538;14.352;2023-04-24T02:49:53;1.63;;;1.03;;
64469;SDS011;50854;48.538;14.352;2023-04-24T02:50:53;1.00;;;0.83;;
64469;SDS011;50854;48.538;14.352;2023-04-24T02:51:53;1.20;;;0.83;;
64469;SDS011;50854;48.538;14.352;2023-04-24T02:52:53;1.17;;;1.00;;
64469;SDS011;50854;48.538;14.352;2023-04-24T02:53:54;1.10;;;1.00;;
64469;SDS011;50854;48.538;14.352;2023-04-24T02:54:54;4.10;;;1.43;;
64469;SDS011;50854;48.538;14.352;2023-04-24T02:55:54;1.43;;;0.93;;
64469;SDS011;50854;48.538;14.352;2023-04-24T02:56:54;1.63;;;1.20;;
64469;SDS011;50854;48.538;14.352;2023-04-24T02:57:55;3.77;;;1.00;;
64469;SDS011;50854;48.538;14.352;2023-04-24T02:58:55;2.23;;;1.10;;
64469;SDS011;50854;48.538;14.352;2023-04-24T02:59:55;1.80;;;1.17;;
64469;SDS011;50854;48.538;14.352;2023-04-24T03:00:55;1.53;;;0.90;;
64469;SDS011;50854;48.538;14.352;2023-04-24T03:01:56;1.23;;;1.07;;
64469;SDS011;50854;48.538;14.352;2023-04-24T03:02:56;1.87;;;1.07;;
64469;SDS011;50854;48.538;14.352;2023-04-24T03:03:56;2.00;;;1.20;;
64469;SDS011;50854;48.538;14.352;2023-04-24T03:04:56;1.90;;;1.10;;
64469;SDS011;50854;48.538;14.352;2023-04-24T03:05:57;1.80;;;1.10;;
64469;SDS011;50854;48.538;14.352;2023-04-24T03:06:57;1.57;;;0.90;;
64469;SDS011;50854;48.538;14.352;2023-04-24T03:07:57;1.30;;;0.90;;
64469;SDS011;50854;48.538;14.352;2023-04-24T03:08:58;2.37;;;1.20;;
64469;SDS011;50854;48.538;14.352;2023-04-24T03:09:58;1.40;;;1.07;;
64469;SDS011;50854;48.538;14.352;2023-04-24T03:10:59;2.42;;;1.20;;
64469;SDS011;50854;48.538;14.352;2023-04-24T03:11:59;1.45;;;1.10;;
64469;SDS011;50854;48.538;14.352;2023-04-24T03:13:00;1.50;;;1.10;;
64469;SDS011;50854;48.538;14.352;2023-04-24T03:14:00;3.03;;;1.40;;
64469;SDS011;50854;48.538;14.352;2023-04-24T03:15:00;1.60;;;1.50;;
64469;SDS011;50854;48.538;14.352;2023-04-24T03:16:01;2.00;;;1.17;;
64469;SDS011;50854;48.538;14.352;2023-04-24T03:17:01;2.30;;;1.10;;
64469;SDS011;50854;48.538;14.352;2023-04-24T03:18:02;2.20;;;1.37;;
64469;SDS011;50854;48.538;14.352;2023-04-24T03:19:02;1.73;;;1.45;;
64469;SDS011;50854;48.538;14.352;2023-04-24T03:20:03;1.70;;;1.20;;
64469;SDS011;50854;48.538;14.352;2023-04-24T03:21:05;2.45;;;1.40;;
64469;SDS011;50854;48.538;14.352;2023-04-24T03:22:05;1.93;;;1.30;;
64469;SDS011;50854;48.538;14.352;2023-04-24T03:23:05;1.93;;;1.20;;
64469;SDS011;50854;48.538;14.352;2023-04-24T03:24:07;2.27;;;1.40;;
64469;SDS011;50854;48.538;14.352;2023-04-24T03:25:07;3.25;;;1.50;;
64469;SDS011;50854;48.538;14.352;2023-04-24T03:26:09;2.00;;;1.45;;
64469;SDS011;50854;48.538;14.352;2023-04-24T03:27:09;1.97;;;1.33;;
64469;SDS011;50854;48.538;14.352;2023-04-24T03:28:09;3.93;;;1.40;;
64469;SDS011;50854;48.538;14.352;2023-04-24T03:29:10;4.03;;;1.50;;
64469;SDS011;50854;48.538;14.352;2023-04-24T03:30:10;2.80;;;1.33;;
64469;SDS011;50854;48.538;14.352;2023-04-24T03:31:10;4.53;;;1.70;;
64469;SDS011;50854;48.538;14.352;2023-04-24T03:32:10;1.40;;;1.30;;
64469;SDS011;50854;48.538;14.352;2023-04-24T03:33:11;2.33;;;1.17;;
64469;SDS011;50854;48.538;14.352;2023-04-24T03:34:11;3.37;;;1.40;;
64469;SDS011;50854;48.538;14.352;2023-04-24T03:35:11;3.57;;;1.80;;
64469;SDS011;50854;48.538;14.352;2023-04-24T03:36:11;2.17;;;1.47;;
64469;SDS011;50854;48.538;14.352;2023-04-24T03:37:12;1.60;;;1.50;;
64469;SDS011;50854;48.538;14.352;2023-04-24T03:38:12;3.40;;;1.53;;
64469;SDS011;50854;48.538;14.352;2023-04-24T03:39:13;3.13;;;1.40;;
64469;SDS011;50854;48.538;14.352;2023-04-24T03:40:13;4.73;;;1.30;;
64469;SDS011;50854;48.538;14.352;2023-04-24T03:41:13;2.43;;;1.53;;
64469;SDS011;50854;48.538;14.352;2023-04-24T03:42:13;3.37;;;1.40;;
64469;SDS011;50854;48.538;14.352;2023-04-24T03:43:13;2.70;;;1.67;;
64469;SDS011;50854;48.538;14.352;2023-04-24T03:44:14;2.63;;;1.27;;
64469;SDS011;50854;48.538;14.352;2023-04-24T03:45:14;1.80;;;1.10;;
64469;SDS011;50854;48.538;14.352;2023-04-24T03:46:14;2.07;;;1.20;;
64469;SDS011;50854;48.538;14.352;2023-04-24T03:47:15;1.60;;;1.50;;
64469;SDS011;50854;48.538;14.352;2023-04-24T03:48:15;1.33;;;1.10;;
64469;SDS011;50854;48.538;14.352;2023-04-24T03:49:15;2.00;;;1.70;;
64469;SDS011;50854;48.538;14.352;2023-04-24T03:50:16;1.87;;;1.67;;
64469;SDS011;50854;48.538;14.352;2023-04-24T03:51:16;2.23;;;1.90;;
64469;SDS011;50854;48.538;14.352;2023-04-24T03:52:16;1.57;;;1.43;;
64469;SDS011;50854;48.538;14.352;2023-04-24T03:53:16;2.27;;;1.43;;
64469;SDS011;50854;48.538;14.352;2023-04-24T03:54:17;3.73;;;1.73;;
64469;SDS011;50854;48.538;14.352;2023-04-24T03:55:17;4.28;;;1.80;;
64469;SDS011;50854;48.538;14.352;2023-04-24T03:56:17;2.17;;;1.60;;
64469;SDS011;50854;48.538;14.352;2023-04-24T03:57:18;3.87;;;1.87;;
64469;SDS011;50854;48.538;14.352;2023-04-24T03:58:18;2.03;;;1.52;;
64469;SDS011;50854;48.538;14.352;2023-04-24T03:59:19;2.93;;;1.93;;
64469;SDS011;50854;48.538;14.352;2023-04-24T04:00:19;3.20;;;1.40;;
64469;SDS011;50854;48.538;14.352;2023-04-24T04:01:21;1.92;;;1.60;;
64469;SDS011;50854;48.538;14.352;2023-04-24T04:02:21;4.47;;;1.63;;
64469;SDS011;50854;48.538;14.352;2023-04-24T04:03:21;2.93;;;1.87;;
64469;SDS011;50854;48.538;14.352;2023-04-24T04:04:21;2.03;;;1.57;;
64469;SDS011;50854;48.538;14.352;2023-04-24T04:05:21;2.60;;;1.80;;
64469;SDS011;50854;48.538;14.352;2023-04-24T04:06:22;3.50;;;1.57;;
64469;SDS011;50854;48.538;14.352;2023-04-24T04:07:22;1.97;;;1.70;;
64469;SDS011;50854;48.538;14.352;2023-04-24T04:08:22;2.63;;;1.80;;
64469;SDS011;50854;48.538;14.352;2023-04-24T04:09:22;2.10;;;1.60;;
64469;SDS011;50854;48.538;14.352;2023-04-24T04:10:23;2.80;;;1.70;;
64469;SDS011;50854;48.538;14.352;2023-04-24T04:11:23;2.40;;;1.67;;
64469;SDS011;50854;48.538;14.352;2023-04-24T04:12:23;2.27;;;1.90;;
64469;SDS011;50854;48.538;14.352;2023-04-24T04:13:24;2.13;;;1.47;;
64469;SDS011;50854;48.538;14.352;2023-04-24T04:14:24;2.57;;;1.60;;
64469;SDS011;50854;48.538;14.352;2023-04-24T04:15:24;3.03;;;1.70;;
64469;SDS011;50854;48.538;14.352;2023-04-24T04:16:25;3.03;;;1.60;;
64469;SDS011;50854;48.538;14.352;2023-04-24T04:17:25;2.07;;;1.57;;
64469;SDS011;50854;48.538;14.352;2023-04-24T04:18:25;1.80;;;1.43;;
64469;SDS011;50854;48.538;14.352;2023-04-24T04:19:26;3.57;;;1.70;;
64469;SDS011;50854;48.538;14.352;2023-04-24T04:20:26;8.82;;;1.48;;
64469;SDS011;50854;48.538;14.352;2023-04-24T04:21:26;1.70;;;1.50;;
64469;SDS011;50854;48.538;14.352;2023-04-24T04:22:27;1.60;;;1.40;;
64469;SDS011;50854;48.538;14.352;2023-04-24T04:23:27;2.27;;;1.60;;
64469;SDS011;50854;48.538;14.352;2023-04-24T04:24:28;2.13;;;1.60;;
64469;SDS011;50854;48.538;14.352;2023-04-24T04:25:28;2.33;;;1.52;;
64469;SDS011;50854;48.538;14.352;2023-04-24T04:26:29;2.40;;;1.40;;
64469;SDS011;50854;48.538;14.352;2023-04-24T04:27:31;1.63;;;1.30;;
64469;SDS011;50854;48.538;14.352;2023-04-24T04:28:32;1.70;;;1.33;;
64469;SDS011;50854;48.538;14.352;2023-04-24T04:29:32;1.53;;;1.30;;
64469;SDS011;50854;48.538;14.352;2023-04-24T04:30:32;2.20;;;1.23;;
64469;SDS011;50854;48.538;14.352;2023-04-24T04:31:33;1.13;;;1.03;;
64469;SDS011;50854;48.538;14.352;2023-04-24T04:32:33;1.30;;;1.20;;
64469;SDS011;50854;48.538;14.352;2023-04-24T04:33:34;1.17;;;1.08;;
64469;SDS011;50854;48.538;14.352;2023-04-24T04:34:36;1.23;;;1.00;;
64469;SDS011;50854;48.538;14.352;2023-04-24T04:35:37;1.20;;;1.10;;
64469;SDS011;50854;48.538;14.352;2023-04-24T04:36:37;1.10;;;1.00;;
64469;SDS011;50854;48.538;14.352;2023-04-24T04:37:40;2.53;;;1.20;;
64469;SDS011;50854;48.538;14.352;2023-04-24T04:38:40;1.25;;;0.95;;
64469;SDS011;50854;48.538;14.352;2023-04-24T04:39:42;1.60;;;1.10;;
64469;SDS011;50854;48.538;14.352;2023-04-24T04:40:43;1.23;;;0.80;;
64469;SDS011;50854;48.538;14.352;2023-04-24T04:41:43;1.10;;;1.00;;
64469;SDS011;50854;48.538;14.352;2023-04-24T04:42:44;1.17;;;1.00;;
64469;SDS011;50854;48.538;14.352;2023-04-24T04:43:45;2.13;;;1.08;;
64469;SDS011;50854;48.538;14.352;2023-04-24T04:44:47;7.18;;;1.15;;
64469;SDS011;50854;48.538;14.352;2023-04-24T04:45:47;1.10;;;1.00;;
64469;SDS011;50854;48.538;14.352;2023-04-24T04:46:48;1.33;;;0.90;;
64469;SDS011;50854;48.538;14.352;2023-04-24T04:47:48;0.70;;;0.70;;
64469;SDS011;50854;48.538;14.352;2023-04-24T04:48:48;1.07;;;0.83;;
64469;SDS011;50854;48.538;14.352;2023-04-24T04:49:49;0.90;;;0.80;;
64469;SDS011;50854;48.538;14.352;2023-04-24T04:50:51;1.27;;;0.60;;
64469;SDS011;50854;48.538;14.352;2023-04-24T04:51:51;0.73;;;0.67;;
64469;SDS011;50854;48.538;14.352;2023-04-24T04:52:51;1.77;;;0.70;;
64469;SDS011;50854;48.538;14.352;2023-04-24T04:53:51;0.70;;;0.70;;
64469;SDS011;50854;48.538;14.352;2023-04-24T04:54:52;2.00;;;0.80;;
64469;SDS011;50854;48.538;14.352;2023-04-24T04:55:52;1.83;;;0.90;;
64469;SDS011;50854;48.538;14.352;2023-04-24T04:56:52;1.23;;;0.90;;
64469;SDS011;50854;48.538;14.352;2023-04-24T04:57:53;1.63;;;0.77;;
64469;SDS011;50854;48.538;14.352;2023-04-24T04:58:53;1.00;;;0.80;;
64469;SDS011;50854;48.538;14.352;2023-04-24T04:59:53;1.23;;;0.73;;
64469;SDS011;50854;48.538;14.352;2023-04-24T05:00:54;1.13;;;0.80;;
64469;SDS011;50854;48.538;14.352;2023-04-24T05:01:54;1.00;;;0.73;;
64469;SDS011;50854;48.538;14.352;2023-04-24T05:02:54;0.93;;;0.73;;
64469;SDS011;50854;48.538;14.352;2023-04-24T05:03:54;0.70;;;0.70;;
64469;SDS011;50854;48.538;14.352;2023-04-24T05:04:55;2.75;;;1.13;;
64469;SDS011;50854;48.538;14.352;2023-04-24T05:05:55;1.17;;;0.90;;
64469;SDS011;50854;48.538;14.352;2023-04-24T05:06:55;1.17;;;0.80;;
64469;SDS011;50854;48.538;14.352;2023-04-24T05:07:56;1.17;;;1.08;;
64469;SDS011;50854;48.538;14.352;2023-04-24T05:08:56;1.23;;;0.80;;
64469;SDS011;50854;48.538;14.352;2023-04-24T05:09:57;0.87;;;0.80;;
64469;SDS011;50854;48.538;14.352;2023-04-24T05:10:57;2.53;;;0.70;;
64469;SDS011;50854;48.538;14.352;2023-04-24T05:11:57;1.73;;;0.70;;
64469;SDS011;50854;48.538;14.352;2023-04-24T05:12:57;1.00;;;0.80;;
64469;SDS011;50854;48.538;14.352;2023-04-24T05:13:58;1.00;;;0.70;;
64469;SDS011;50854;48.538;14.352;2023-04-24T05:14:58;0.77;;;0.63;;
64469;SDS011;50854;48.538;14.352;2023-04-24T05:15:58;1.27;;;0.73;;
64469;SDS011;50854;48.538;14.352;2023-04-24T05:16:59;0.63;;;0.63;;
64469;SDS011;50854;48.538;14.352;2023-04-24T05:18:00;0.95;;;0.82;;
64469;SDS011;50854;48.538;14.352;2023-04-24T05:19:00;1.30;;;0.80;;
64469;SDS011;50854;48.538;14.352;2023-04-24T05:20:00;1.13;;;0.60;;
64469;SDS011;50854;48.538;14.352;2023-04-24T05:21:01;1.80;;;0.93;;
64469;SDS011;50854;48.538;14.352;2023-04-24T05:22:01;0.80;;;0.80;;
64469;SDS011;50854;48.538;14.352;2023-04-24T05:23:03;1.05;;;0.80;;
64469;SDS011;50854;48.538;14.352;2023-04-24T05:24:03;1.07;;;0.80;;
64469;SDS011;50854;48.538;14.352;2023-04-24T05:25:03;0.87;;;0.70;;
64469;SDS011;50854;48.538;14.352;2023-04-24T05:26:04;0.60;;;0.60;;
64469;SDS011;50854;48.538;14.352;2023-04-24T05:27:04;0.73;;;0.73;;
64469;SDS011;50854;48.538;14.352;2023-04-24T05:28:05;1.13;;;0.70;;
64469;SDS011;50854;48.538;14.352;2023-04-24T05:29:05;0.60;;;0.60;;
64469;SDS011;50854;48.538;14.352;2023-04-24T05:30:06;0.80;;;0.70;;
64469;SDS011;50854;48.538;14.352;2023-04-24T05:31:06;0.80;;;0.60;;
64469;SDS011;50854;48.538;14.352;2023-04-24T05:32:06;2.23;;;0.70;;
64469;SDS011;50854;48.538;14.352;2023-04-24T05:33:07;0.70;;;0.60;;
64469;SDS011;50854;48.538;14.352;2023-04-24T05:35:09;2.13;;;0.50;;
64469;SDS011;50854;48.538;14.352;2023-04-24T05:36:09;1.50;;;0.80;;
64469;SDS011;50854;48.538;14.352;2023-04-24T05:37:10;1.13;;;0.80;;
64469;SDS011;50854;48.538;14.352;2023-04-24T05:38:10;1.37;;;0.70;;
64469;SDS011;50854;48.538;14.352;2023-04-24T05:39:10;1.63;;;1.00;;
64469;SDS011;50854;48.538;14.352;2023-04-24T05:40:11;1.33;;;0.70;;
64469;SDS011;50854;48.538;14.352;2023-04-24T05:41:11;1.05;;;0.70;;
64469;SDS011;50854;48.538;14.352;2023-04-24T05:42:12;0.87;;;0.80;;
64469;SDS011;50854;48.538;14.352;2023-04-24T05:43:12;2.10;;;0.80;;
64469;SDS011;50854;48.538;14.352;2023-04-24T05:44:12;1.45;;;1.00;;
64469;SDS011;50854;48.538;14.352;2023-04-24T05:45:13;3.37;;;0.87;;
64469;SDS011;50854;48.538;14.352;2023-04-24T05:46:16;1.30;;;0.80;;
64469;SDS011;50854;48.538;14.352;2023-04-24T05:47:16;1.00;;;0.90;;
64469;SDS011;50854;48.538;14.352;2023-04-24T05:48:17;2.00;;;1.07;;
64469;SDS011;50854;48.538;14.352;2023-04-24T05:49:17;1.73;;;1.10;;
64469;SDS011;50854;48.538;14.352;2023-04-24T05:50:17;1.83;;;1.20;;
64469;SDS011;50854;48.538;14.352;2023-04-24T05:51:17;1.13;;;1.03;;
64469;SDS011;50854;48.538;14.352;2023-04-24T05:52:17;1.80;;;0.90;;
64469;SDS011;50854;48.538;14.352;2023-04-24T05:53:18;1.87;;;1.13;;
64469;SDS011;50854;48.538;14.352;2023-04-24T05:54:18;1.42;;;0.90;;
64469;SDS011;50854;48.538;14.352;2023-04-24T05:55:19;1.40;;;1.10;;
64469;SDS011;50854;48.538;14.352;2023-04-24T05:56:19;2.50;;;1.10;;
64469;SDS011;50854;48.538;14.352;2023-04-24T05:57:20;1.25;;;0.95;;
64469;SDS011;50854;48.538;14.352;2023-04-24T05:58:20;1.77;;;0.80;;
64469;SDS011;50854;48.538;14.352;2023-04-24T05:59:20;1.63;;;1.00;;
64469;SDS011;50854;48.538;14.352;2023-04-24T06:00:21;2.23;;;0.90;;
64469;SDS011;50854;48.538;14.352;2023-04-24T06:01:21;1.73;;;1.00;;
64469;SDS011;50854;48.538;14.352;2023-04-24T06:02:21;2.93;;;0.70;;
64469;SDS011;50854;48.538;14.352;2023-04-24T06:03:22;1.13;;;0.73;;
64469;SDS011;50854;48.538;14.352;2023-04-24T06:04:22;2.97;;;1.33;;
64469;SDS011;50854;48.538;14.352;2023-04-24T06:05:22;1.53;;;0.90;;
64469;SDS011;50854;48.538;14.352;2023-04-24T06:06:23;2.50;;;0.93;;
64469;SDS011;50854;48.538;14.352;2023-04-24T06:07:23;1.80;;;1.02;;
64469;SDS011;50854;48.538;14.352;2023-04-24T06:08:24;1.33;;;0.80;;